Antimony, UT

10:57 PM MDT on August 26, 2016 (GMT -0600)
Bryce Canyon | | Change Station

Elev 7585 ft 37.71 °N, 112.15 °W | Updated 4 minutes ago

Mostly Cloudy
Mostly Cloudy
47 °F
Feels Like 47 °F
N
12
Wind Variable Wind from West

Today
High -- | Low -- °F
--% Chance of Precip.
Yesterday
High -- | Low -- °F
Precip. -- in
Pressure 30.04 in
Visibility 10.0 miles
Clouds Mostly Cloudy 6000 ft
Dew Point 43 °F
Humidity 86%
Rainfall 0.41 in
Snow Depth Not available.
6:53 AM 8:05 PM
Waning Crescent, 28% visible
METAR KBCE 270453Z AUTO 26010KT 10SM BKN060 08/06 A3033 RMK AO2 RAB08E18 SLP172 P0001 T00830061
Pressure 30.04 in
Visibility 10.0 miles
Clouds Mostly Cloudy 6000 ft
Dew Point 43 °F
Humidity 86%
Rainfall 0.41 in
Snow Depth Not available.
6:53 AM 8:05 PM
Waning Crescent, 28% visible
METAR KBCE 270453Z AUTO 26010KT 10SM BKN060 08/06 A3033 RMK AO2 RAB08E18 SLP172 P0001 T00830061

10-Day Weather Forecast

Almanac

Astronomy

Aug. 26, 2016 Rise Set
Actual Time
Civil Twilight
Nautical Twilight
Astronomical Twilight
Moon
Length of Visible Light
Length of Day
Tomorrow will be .
, % of the Moon is Illuminated

Today's Extremes

State Highs State Lows

Community

WunderPhotos

Upload Photos

1,935,299 photos uploaded!

WunderBlog® & News

Nearby

Air Quality

  Air Quality AQ Index Pollutant
Not available.

Snow Depth

Station Depth Elevation

Earthquake Activity

City Distance Mag. Time & Date
Minimum magnitude displayed is 2.5.

Coastal Water Temperatures

Place Temperature

Stations

Nearby Weather Stations

Station Location Temp. Windchill Dew Point Humidity Wind Precip. Elev Updated Type
                   

Watches & Warnings

There are currently no watches in effect.